createdAt,value
2023-03-13T00:00:12.274Z,99546.59
2023-03-13T00:02:40.982Z,99554.22
2023-03-13T00:05:10.659Z,99557.56
2023-03-13T00:07:39.504Z,99560.09
2023-03-13T00:10:09.056Z,99554.03
2023-03-13T00:12:37.863Z,99547.06
2023-03-13T00:15:07.613Z,99544.38
2023-03-13T00:17:38.325Z,99557.28
2023-03-13T00:20:09.230Z,99541.78
2023-03-13T00:22:37.859Z,99537.47
2023-03-13T00:25:07.487Z,99532.31
2023-03-13T00:27:36.289Z,99528.91
2023-03-13T00:30:05.452Z,99520.94
2023-03-13T00:32:34.877Z,99509.66
2023-03-13T00:35:06.626Z,99506.22
2023-03-13T00:37:35.016Z,99500.94
2023-03-13T00:40:04.402Z,99507.72
2023-03-13T00:42:33.379Z,99505.72
2023-03-13T00:45:03.054Z,99496.09
2023-03-13T00:47:31.558Z,99492.56
2023-03-13T00:49:59.985Z,99480.47
2023-03-13T00:52:30.577Z,99474.53
2023-03-13T00:54:58.935Z,99465.06
2023-03-13T00:57:29.188Z,99474.50
2023-03-13T00:59:58.067Z,99464.09
2023-03-13T01:02:26.518Z,99463.22
2023-03-13T01:04:55.859Z,99468.44
2023-03-13T01:07:27.664Z,99467.63
2023-03-13T01:10:01.402Z,99465.09
2023-03-13T01:12:31.291Z,99461.63
2023-03-13T01:14:59.633Z,99458.19
2023-03-13T01:17:28.301Z,99446.09
2023-03-13T01:19:57.502Z,99442.66
2023-03-13T01:22:25.946Z,99443.50
2023-03-13T01:24:54.797Z,99447.75
2023-03-13T01:27:24.860Z,99452.13
2023-03-13T01:29:53.595Z,99455.63
2023-03-13T01:32:23.139Z,99448.75
2023-03-13T01:34:51.814Z,99454.81
2023-03-13T01:37:20.358Z,99458.31
2023-03-13T01:39:48.764Z,99453.22
2023-03-13T01:42:17.287Z,99454.91
2023-03-13T01:44:55.458Z,99448.09
2023-03-13T01:47:25.803Z,99445.50
2023-03-13T01:50:16.935Z,99442.03
2023-03-13T01:53:05.368Z,99429.03
2023-03-13T01:55:35.072Z,99437.56
2023-03-13T01:58:04.213Z,99425.50
2023-03-13T02:00:37.961Z,99426.34
2023-03-13T02:03:15.389Z,99425.56
2023-03-13T02:05:45.160Z,99437.59
2023-03-13T02:08:19.635Z,99435.91
2023-03-13T02:10:52.792Z,99430.72
2023-03-13T02:13:23.635Z,99437.56
2023-03-13T02:15:53.705Z,99428.97
2023-03-13T02:18:22.012Z,99422.94
2023-03-13T02:20:54.908Z,99424.69
2023-03-13T02:23:28.842Z,99410.97
2023-03-13T02:25:58.710Z,99419.63
2023-03-13T02:28:39.443Z,99418.75
2023-03-13T02:31:12.264Z,99433.38
2023-03-13T02:33:43.056Z,99425.63
2023-03-13T02:36:17.565Z,99423.88
2023-03-13T02:38:54.621Z,99416.13
2023-03-13T02:41:26.975Z,99416.13
2023-03-13T02:43:57.856Z,99421.25
2023-03-13T02:46:26.266Z,99432.38
2023-03-13T02:48:57.990Z,99436.50
2023-03-13T02:51:32.304Z,99438.06
2023-03-13T02:54:05.373Z,99437.09
2023-03-13T02:56:37.850Z,99447.28
2023-03-13T02:59:08.376Z,99441.16
2023-03-13T03:01:40.742Z,99442.84
2023-03-13T03:04:09.395Z,99431.59
2023-03-13T03:06:37.659Z,99443.59
2023-03-13T03:09:07.066Z,99445.19
2023-03-13T03:11:39.310Z,99441.56
2023-03-13T03:14:14.190Z,99448.34
2023-03-13T03:16:45.906Z,99444.88
2023-03-13T03:19:15.136Z,99452.59
2023-03-13T03:21:43.929Z,99439.69
2023-03-13T03:24:12.751Z,99446.56
2023-03-13T03:26:42.441Z,99443.16
2023-03-13T03:29:18.424Z,99439.78
2023-03-13T03:31:50.560Z,99445.78
2023-03-13T03:34:19.390Z,99451.88
2023-03-13T03:36:48.465Z,99445.78
2023-03-13T03:39:16.838Z,99449.25
2023-03-13T03:41:47.971Z,99454.31
2023-03-13T03:44:16.312Z,99453.47
2023-03-13T03:46:52.782Z,99449.22
2023-03-13T03:49:21.974Z,99451.00
2023-03-13T03:51:50.980Z,99445.09
2023-03-13T03:54:25.105Z,99448.56
2023-03-13T03:56:55.301Z,99446.13
2023-03-13T03:59:24.194Z,99443.75
2023-03-13T04:02:00.879Z,99444.72
2023-03-13T04:04:31.410Z,99443.97
2023-03-13T04:07:05.244Z,99425.00
2023-03-13T04:09:35.879Z,99427.63
2023-03-13T04:12:09.409Z,99432.03
2023-03-13T04:14:43.268Z,99426.94
2023-03-13T04:17:13.864Z,99416.66
2023-03-13T04:19:44.076Z,99421.81
2023-03-13T04:22:12.540Z,99426.09
2023-03-13T04:24:46.955Z,99420.13
2023-03-13T04:27:17.096Z,99421.00
2023-03-13T04:29:47.134Z,99407.38
2023-03-13T04:32:42.062Z,99416.72
2023-03-13T04:35:22.704Z,99415.88
2023-03-13T04:38:10.030Z,99402.06
2023-03-13T04:41:04.678Z,99413.31
2023-03-13T04:43:50.712Z,99409.81
2023-03-13T04:46:42.668Z,99410.72
2023-03-13T04:49:26.826Z,99402.88
2023-03-13T04:52:11.507Z,99381.38
2023-03-13T04:55:02.937Z,99384.78
2023-03-13T04:57:57.675Z,99378.78
2023-03-13T05:00:46.214Z,99389.09
2023-03-13T05:03:28.494Z,99382.19
2023-03-13T05:05:56.928Z,99391.69
2023-03-13T05:08:46.236Z,99387.31
2023-03-13T05:11:43.803Z,99388.13
2023-03-13T05:14:38.501Z,99382.84
2023-03-13T05:17:28.082Z,99382.78
2023-03-13T05:20:17.322Z,99373.22
2023-03-13T05:23:02.999Z,99378.34
2023-03-13T05:25:55.952Z,99383.41
2023-03-13T05:28:53.828Z,99380.72
2023-03-13T05:31:28.612Z,99379.78
2023-03-13T05:34:13.610Z,99377.09
2023-03-13T05:37:00.580Z,99362.41
2023-03-13T05:39:49.598Z,99373.63
2023-03-13T05:42:21.112Z,99364.06
2023-03-13T05:45:01.151Z,99372.59
2023-03-13T05:47:46.407Z,99377.66
2023-03-13T05:50:36.655Z,99376.72
2023-03-13T05:53:24.060Z,99377.47
2023-03-13T05:56:04.534Z,99389.47
2023-03-13T05:58:59.593Z,99383.31
2023-03-13T06:01:58.688Z,99379.75
2023-03-13T06:04:38.419Z,99371.91
2023-03-13T06:07:08.504Z,99366.56
2023-03-13T06:09:37.023Z,99370.69
2023-03-13T06:12:05.706Z,99363.56
2023-03-13T06:14:35.792Z,99365.09
2023-03-13T06:17:19.729Z,99355.38
2023-03-13T06:19:48.695Z,99360.38
2023-03-13T06:22:20.578Z,99358.59
2023-03-13T06:24:49.789Z,99370.50
2023-03-13T06:27:18.837Z,99370.34
2023-03-13T06:29:47.484Z,99362.44
2023-03-13T06:32:15.962Z,99357.97
2023-03-13T06:34:44.448Z,99355.19
2023-03-13T06:37:13.899Z,99364.47
2023-03-13T06:39:44.072Z,99359.84
2023-03-13T06:42:12.885Z,99363.94
2023-03-13T06:44:42.062Z,99361.97
2023-03-13T06:47:10.522Z,99356.47
2023-03-13T06:49:39.584Z,99360.53
2023-03-13T06:52:08.221Z,99352.59
2023-03-13T06:54:37.273Z,99341.19
2023-03-13T06:57:07.450Z,99342.69
2023-03-13T06:59:36.236Z,99336.44
2023-03-13T07:02:05.211Z,99338.88
2023-03-13T07:04:34.240Z,99335.16
2023-03-13T07:07:03.145Z,99330.66
2023-03-13T07:09:31.810Z,99332.94
2023-03-13T07:12:00.548Z,99331.81
2023-03-13T07:14:30.483Z,99327.94
2023-03-13T07:17:00.536Z,99322.22
2023-03-13T07:19:29.895Z,99327.53
2023-03-13T07:21:58.419Z,99323.56
2023-03-13T07:24:26.777Z,99323.97
2023-03-13T07:27:06.887Z,99319.13
2023-03-13T07:29:38.557Z,99325.78
2023-03-13T07:32:08.011Z,99317.63
2023-03-13T07:34:36.726Z,99309.50
2023-03-13T07:37:05.179Z,99310.94
2023-03-13T07:39:33.683Z,99306.41
2023-03-13T07:42:02.071Z,99306.97
2023-03-13T07:44:30.997Z,99306.53
2023-03-13T07:47:02.996Z,99310.41
2023-03-13T07:49:31.300Z,99304.03
2023-03-13T07:52:01.726Z,99305.56
2023-03-13T07:54:30.243Z,99305.38
2023-03-13T07:56:59.104Z,99292.09
2023-03-13T07:59:27.661Z,99287.41
2023-03-13T08:01:56.508Z,99290.47
2023-03-13T08:04:26.399Z,99284.81
2023-03-13T08:06:55.730Z,99287.63
2023-03-13T08:09:24.598Z,99287.63
2023-03-13T08:11:52.933Z,99291.78
2023-03-13T08:14:21.153Z,99303.09
2023-03-13T08:16:49.664Z,99296.25
2023-03-13T08:19:19.875Z,99299.84
2023-03-13T08:21:49.660Z,99289.25
2023-03-13T08:24:18.161Z,99278.88
2023-03-13T08:26:46.990Z,99277.13
2023-03-13T08:29:16.635Z,99270.91
2023-03-13T08:31:48.056Z,99262.34
2023-03-13T08:34:18.102Z,99266.63
2023-03-13T08:36:47.266Z,99267.38
2023-03-13T08:39:18.308Z,99272.50
2023-03-13T08:41:47.069Z,99266.97
2023-03-13T08:44:17.720Z,99271.22
2023-03-13T08:46:47.071Z,99268.00
2023-03-13T08:49:17.881Z,99269.09
2023-03-13T08:51:46.353Z,99278.81
2023-03-13T08:54:16.862Z,99262.59
2023-03-13T08:56:45.327Z,99270.97
2023-03-13T08:59:15.787Z,99270.66
2023-03-13T09:01:44.742Z,99267.34
2023-03-13T09:04:13.825Z,99260.66
2023-03-13T09:06:44.930Z,99253.53
2023-03-13T09:09:14.518Z,99268.00
2023-03-13T09:11:45.531Z,99268.00
2023-03-13T09:14:13.943Z,99253.13
2023-03-13T09:16:43.086Z,99256.75
2023-03-13T09:19:11.535Z,99254.63
2023-03-13T09:21:40.066Z,99247.41
2023-03-13T09:24:09.363Z,99251.81
2023-03-13T09:26:39.646Z,99247.56
2023-03-13T09:29:12.590Z,99240.53
2023-03-13T09:31:41.932Z,99244.53
2023-03-13T09:34:10.730Z,99242.13
2023-03-13T09:36:39.225Z,99228.41
2023-03-13T09:39:07.843Z,99234.31
2023-03-13T09:41:44.154Z,99230.03
2023-03-13T09:44:19.754Z,99217.69
2023-03-13T09:46:58.176Z,99227.97
2023-03-13T09:49:32.988Z,99216.53
2023-03-13T09:52:11.735Z,99213.31
2023-03-13T09:54:46.981Z,99214.75
2023-03-13T09:57:24.016Z,99218.75
2023-03-13T09:59:58.928Z,99218.94
2023-03-13T10:02:33.366Z,99219.66
2023-03-13T10:05:09.111Z,99212.09
2023-03-13T10:07:38.299Z,99211.78
2023-03-13T10:10:15.884Z,99213.28
2023-03-13T10:12:48.069Z,99208.16
2023-03-13T10:15:39.278Z,99211.97
2023-03-13T10:18:17.009Z,99204.66
2023-03-13T10:20:48.214Z,99200.25
2023-03-13T10:23:22.729Z,99198.44
2023-03-13T10:25:51.383Z,99192.00
2023-03-13T10:28:22.808Z,99181.31
2023-03-13T10:30:59.112Z,99174.81
2023-03-13T10:33:29.083Z,99159.22
2023-03-13T10:36:03.202Z,99158.75
2023-03-13T10:38:35.137Z,99164.41
2023-03-13T10:41:19.679Z,99158.78
2023-03-13T10:43:53.494Z,99150.47
2023-03-13T10:46:31.600Z,99146.16
2023-03-13T10:49:03.456Z,99138.78
2023-03-13T10:51:37.722Z,99140.81
2023-03-13T10:54:17.869Z,99136.88
2023-03-13T10:56:46.646Z,99131.94
2023-03-13T10:59:26.139Z,99130.81
2023-03-13T11:02:01.760Z,99117.22
2023-03-13T11:04:33.622Z,99119.41
2023-03-13T11:07:04.095Z,99117.66
2023-03-13T11:09:33.588Z,99116.84
2023-03-13T11:12:08.281Z,99100.06
2023-03-13T11:14:37.105Z,99097.97
2023-03-13T11:17:16.482Z,99095.84
2023-03-13T11:19:58.742Z,99095.50
2023-03-13T11:22:35.712Z,99096.19
2023-03-13T11:25:17.374Z,99085.63
2023-03-13T11:27:56.424Z,99070.66
2023-03-13T11:30:50.644Z,99082.31
2023-03-13T11:33:30.519Z,99060.06
2023-03-13T11:36:04.362Z,99066.63
2023-03-13T11:38:37.861Z,99047.34
2023-03-13T11:41:19.761Z,99050.56
2023-03-13T11:44:01.085Z,99035.91
2023-03-13T11:46:48.955Z,99032.81
2023-03-13T11:49:35.867Z,99011.88
2023-03-13T11:52:18.184Z,99017.00
2023-03-13T11:55:00.145Z,99013.16
2023-03-13T11:57:32.437Z,99005.56
2023-03-13T12:00:18.132Z,98997.88
2023-03-13T12:02:51.760Z,98998.53
2023-03-13T12:05:22.861Z,98992.84
2023-03-13T12:07:58.406Z,98987.06
2023-03-13T12:10:31.831Z,98992.19
2023-03-13T12:13:07.339Z,98996.69
2023-03-13T12:15:40.467Z,98982.44
2023-03-13T12:18:18.887Z,98985.97
2023-03-13T12:20:56.177Z,98984.75
2023-03-13T12:23:33.353Z,99000.97
2023-03-13T12:26:07.757Z,98988.06
2023-03-13T12:28:42.972Z,98985.16
2023-03-13T12:31:21.160Z,98982.50
2023-03-13T12:33:57.471Z,98959.66
2023-03-13T12:36:32.749Z,98966.50
2023-03-13T12:39:13.559Z,98967.84
2023-03-13T12:41:44.982Z,98964.66
2023-03-13T12:44:19.812Z,98953.53
2023-03-13T12:46:55.982Z,98945.66
2023-03-13T12:49:57.219Z,98948.75
2023-03-13T12:52:59.319Z,98943.91
2023-03-13T12:56:07.480Z,98937.63
2023-03-13T12:58:55.826Z,98940.50
2023-03-13T13:01:33.267Z,98929.25
2023-03-13T13:04:06.896Z,98923.47
2023-03-13T13:06:58.165Z,98920.53
2023-03-13T13:09:30.913Z,98915.22
2023-03-13T13:12:02.182Z,98908.91
2023-03-13T13:14:58.552Z,98911.28
2023-03-13T13:17:55.732Z,98920.13
2023-03-13T13:20:34.601Z,98908.13
2023-03-13T13:23:26.963Z,98922.66
2023-03-13T13:26:18.101Z,98919.72
2023-03-13T13:28:48.559Z,98922.09
2023-03-13T13:31:57.464Z,98923.97
2023-03-13T13:34:58.620Z,98922.41
2023-03-13T13:37:30.223Z,98925.47
2023-03-13T13:40:19.756Z,98924.53
2023-03-13T13:42:52.763Z,98924.22
2023-03-13T13:45:33.900Z,98921.28
2023-03-13T13:48:34.777Z,98919.06
2023-03-13T13:51:24.204Z,98911.19
2023-03-13T13:53:59.876Z,98918.22
2023-03-13T13:56:39.548Z,98906.38
2023-03-13T13:59:42.263Z,98903.22
2023-03-13T14:02:26.198Z,98901.22
2023-03-13T14:05:03.086Z,98887.94
2023-03-13T14:07:42.993Z,98893.81
2023-03-13T14:10:33.722Z,98898.72
2023-03-13T14:13:03.859Z,98896.31
2023-03-13T14:15:36.053Z,98883.72
2023-03-13T14:18:14.321Z,98889.66
2023-03-13T14:20:54.866Z,98888.59
2023-03-13T14:23:42.306Z,98900.25
2023-03-13T14:26:19.195Z,98890.97
2023-03-13T14:28:49.691Z,98879.94
2023-03-13T14:31:28.827Z,98872.59
2023-03-13T14:33:58.979Z,98881.78
2023-03-13T14:36:29.430Z,98867.50
2023-03-13T14:38:59.660Z,98857.41
2023-03-13T14:41:34.157Z,98863.88
2023-03-13T14:44:07.883Z,98853.59
2023-03-13T14:46:42.019Z,98850.50
2023-03-13T14:49:18.172Z,98845.59
2023-03-13T14:51:57.562Z,98858.34
2023-03-13T14:54:29.253Z,98846.72
2023-03-13T14:57:05.347Z,98832.56
2023-03-13T14:59:34.815Z,98841.47
2023-03-13T15:02:16.136Z,98829.22
2023-03-13T15:04:56.462Z,98836.78
2023-03-13T15:07:27.097Z,98829.66
2023-03-13T15:09:56.016Z,98824.44
2023-03-13T15:12:25.285Z,98818.22
2023-03-13T15:14:54.406Z,98807.25
2023-03-13T15:17:26.301Z,98823.50
2023-03-13T15:19:56.996Z,98813.97
2023-03-13T15:22:30.891Z,98814.16
2023-03-13T15:25:06.503Z,98805.47
2023-03-13T15:27:36.037Z,98799.06
2023-03-13T15:30:05.984Z,98802.44
2023-03-13T15:32:38.893Z,98806.72
2023-03-13T15:35:24.941Z,98803.75
2023-03-13T15:37:53.834Z,98815.38
2023-03-13T15:40:24.493Z,98810.56
2023-03-13T15:42:54.258Z,98800.66
2023-03-13T15:45:23.432Z,98804.81
2023-03-13T15:47:53.366Z,98800.81
2023-03-13T15:50:25.791Z,98806.53
2023-03-13T15:52:54.402Z,98809.66
2023-03-13T15:55:23.423Z,98819.72
2023-03-13T15:57:51.857Z,98811.97
2023-03-13T16:00:22.721Z,98810.50
2023-03-13T16:02:53.509Z,98804.25
2023-03-13T16:05:21.851Z,98816.03
2023-03-13T16:07:50.221Z,98807.63
2023-03-13T16:10:23.220Z,98803.41
2023-03-13T16:12:53.489Z,98798.34
2023-03-13T16:15:22.175Z,98797.81
2023-03-13T16:17:51.779Z,98792.09
2023-03-13T16:20:26.584Z,98800.16
2023-03-13T16:22:55.362Z,98800.25
2023-03-13T16:25:25.095Z,98807.91
2023-03-13T16:27:56.320Z,98797.81
2023-03-13T16:30:28.991Z,98795.38
2023-03-13T16:32:58.374Z,98799.22
2023-03-13T16:35:30.052Z,98795.75
2023-03-13T16:37:59.609Z,98801.00
2023-03-13T16:40:31.255Z,98800.91
2023-03-13T16:43:01.167Z,98793.22
2023-03-13T16:45:30.357Z,98785.59
2023-03-13T16:47:59.108Z,98792.19
2023-03-13T16:50:34.248Z,98807.72
2023-03-13T16:53:03.203Z,98801.53
2023-03-13T16:55:36.619Z,98808.28
2023-03-13T16:58:06.214Z,98798.75
2023-03-13T17:00:36.881Z,98809.47
2023-03-13T17:03:05.615Z,98809.78
2023-03-13T17:05:35.817Z,98813.41
2023-03-13T17:08:07.308Z,98816.13
2023-03-13T17:10:35.867Z,98828.44
2023-03-13T17:13:05.749Z,98828.53
2023-03-13T17:15:35.040Z,98829.03
2023-03-13T17:18:03.820Z,98827.53
2023-03-13T17:20:33.692Z,98830.88
2023-03-13T17:23:04.217Z,98835.00
2023-03-13T17:25:33.299Z,98835.78
2023-03-13T17:28:02.952Z,98831.19
2023-03-13T17:30:32.677Z,98828.28
2023-03-13T17:33:01.352Z,98830.06
2023-03-13T17:35:29.934Z,98840.63
2023-03-13T17:37:58.241Z,98836.22
2023-03-13T17:40:29.952Z,98838.41
2023-03-13T17:42:58.705Z,98844.63
2023-03-13T17:45:27.076Z,98838.56
2023-03-13T17:47:55.640Z,98836.31
2023-03-13T17:50:27.633Z,98831.19
2023-03-13T17:52:56.922Z,98826.97
2023-03-13T17:55:25.439Z,98828.91
2023-03-13T17:57:55.746Z,98825.19
2023-03-13T18:00:29.232Z,98826.59
2023-03-13T18:02:58.834Z,98820.97
2023-03-13T18:05:27.969Z,98827.81
2023-03-13T18:07:57.367Z,98815.41
2023-03-13T18:10:29.988Z,98803.03
2023-03-13T18:13:00.121Z,98796.78
2023-03-13T18:15:28.865Z,98798.28
2023-03-13T18:17:58.316Z,98792.97
2023-03-13T18:20:31.579Z,98796.03
2023-03-13T18:23:00.915Z,98789.00
2023-03-13T18:25:30.391Z,98784.53
2023-03-13T18:28:00.694Z,98780.31
2023-03-13T18:30:31.162Z,98771.44
2023-03-13T18:33:00.445Z,98782.28
2023-03-13T18:35:29.503Z,98793.41
2023-03-13T18:37:58.078Z,98779.06
2023-03-13T18:40:30.353Z,98783.00
2023-03-13T18:43:00.298Z,98794.03
2023-03-13T18:45:29.185Z,98779.34
2023-03-13T18:47:57.582Z,98773.91
2023-03-13T18:50:28.189Z,98787.84
2023-03-13T18:52:58.259Z,98779.06
2023-03-13T18:55:30.516Z,98772.56
2023-03-13T18:58:00.381Z,98777.19
2023-03-13T19:00:30.756Z,98781.38
2023-03-13T19:02:59.364Z,98775.97
2023-03-13T19:05:28.400Z,98774.00
2023-03-13T19:07:56.626Z,98763.44
2023-03-13T19:10:27.454Z,98759.22
2023-03-13T19:12:57.551Z,98745.94
2023-03-13T19:15:32.461Z,98738.75
2023-03-13T19:18:03.681Z,98737.44
2023-03-13T19:20:32.630Z,98738.28
2023-03-13T19:23:01.719Z,98732.09
2023-03-13T19:25:30.634Z,98733.84
2023-03-13T19:27:59.181Z,98734.97
2023-03-13T19:30:30.027Z,98727.94
2023-03-13T19:32:58.861Z,98726.28
2023-03-13T19:35:28.454Z,98730.56
2023-03-13T19:37:57.753Z,98734.22
2023-03-13T19:40:28.871Z,98726.38
2023-03-13T19:42:57.526Z,98731.06
2023-03-13T19:45:26.580Z,98726.59
2023-03-13T19:47:57.452Z,98725.31
2023-03-13T19:50:27.887Z,98737.59
2023-03-13T19:52:56.263Z,98748.44
2023-03-13T19:55:24.988Z,98763.94
2023-03-13T19:57:53.514Z,98749.09
2023-03-13T20:00:25.655Z,98752.19
2023-03-13T20:02:55.412Z,98744.97
2023-03-13T20:05:28.671Z,98732.81
2023-03-13T20:07:58.374Z,98726.72
2023-03-13T20:10:27.752Z,98729.66
2023-03-13T20:12:56.232Z,98733.13
2023-03-13T20:15:24.801Z,98725.25
2023-03-13T20:17:53.404Z,98734.25
2023-03-13T20:20:22.605Z,98734.59
2023-03-13T20:22:57.853Z,98728.72
2023-03-13T20:25:27.902Z,98731.25
2023-03-13T20:27:56.634Z,98753.88
2023-03-13T20:30:25.242Z,98748.63
2023-03-13T20:32:59.754Z,98743.41
2023-03-13T20:35:30.553Z,98737.69
2023-03-13T20:38:01.939Z,98734.34
2023-03-13T20:40:30.579Z,98738.72
2023-03-13T20:42:59.776Z,98742.28
2023-03-13T20:45:30.469Z,98730.16
2023-03-13T20:47:59.814Z,98727.72
2023-03-13T20:50:28.179Z,98723.41
2023-03-13T20:52:57.167Z,98725.09
2023-03-13T20:55:27.916Z,98718.19
2023-03-13T20:57:56.586Z,98725.41
2023-03-13T21:00:26.725Z,98721.91
2023-03-13T21:02:55.432Z,98723.03
2023-03-13T21:05:24.131Z,98717.06
2023-03-13T21:07:53.614Z,98726.69
2023-03-13T21:10:22.374Z,98720.34
2023-03-13T21:12:52.952Z,98714.25
2023-03-13T21:15:21.700Z,98726.59
2023-03-13T21:17:50.898Z,98724.94
2023-03-13T21:20:19.683Z,98716.88
2023-03-13T21:22:48.251Z,98716.22
2023-03-13T21:25:17.559Z,98717.25
2023-03-13T21:27:46.066Z,98719.31
2023-03-13T21:30:19.704Z,98705.84
2023-03-13T21:32:49.295Z,98713.16
2023-03-13T21:35:18.639Z,98711.66
2023-03-13T21:37:51.716Z,98704.91
2023-03-13T21:40:23.590Z,98704.28
2023-03-13T21:42:53.164Z,98695.88
2023-03-13T21:45:22.986Z,98690.16
2023-03-13T21:47:51.387Z,98698.19
2023-03-13T21:52:54.160Z,98699.50
2023-03-13T21:55:23.108Z,98693.41
2023-03-13T21:57:52.226Z,98694.25
2023-03-13T22:00:23.724Z,98679.78
2023-03-13T22:02:52.418Z,98680.81
2023-03-13T22:05:21.196Z,98679.88
2023-03-13T22:07:50.126Z,98679.78
2023-03-13T22:10:18.932Z,98678.97
2023-03-13T22:12:47.501Z,98679.97
2023-03-13T22:15:16.098Z,98684.63
2023-03-13T22:17:46.669Z,98680.69
2023-03-13T22:20:15.416Z,98686.00
2023-03-13T22:22:44.664Z,98674.69
2023-03-13T22:25:13.728Z,98672.09
2023-03-13T22:27:43.424Z,98666.97
2023-03-13T22:30:13.181Z,98667.22
2023-03-13T22:32:41.743Z,98664.91
2023-03-13T22:35:12.173Z,98659.44
2023-03-13T22:37:40.960Z,98652.19
2023-03-13T22:40:11.420Z,98661.06
2023-03-13T22:42:40.133Z,98649.31
2023-03-13T22:45:10.537Z,98649.84
2023-03-13T22:47:41.239Z,98646.06
2023-03-13T22:50:13.230Z,98650.97
2023-03-13T22:52:42.018Z,98649.97
2023-03-13T22:55:11.174Z,98643.50
2023-03-13T22:57:39.761Z,98643.16
2023-03-13T23:00:10.246Z,98637.28
2023-03-13T23:02:38.566Z,98636.13
2023-03-13T23:05:07.293Z,98629.88
2023-03-13T23:07:40.643Z,98618.13
2023-03-13T23:10:11.984Z,98611.28
2023-03-13T23:12:40.932Z,98617.78
2023-03-13T23:15:11.665Z,98609.44
2023-03-13T23:17:41.098Z,98608.00
2023-03-13T23:20:13.475Z,98611.03
2023-03-13T23:22:45.007Z,98613.03
2023-03-13T23:25:15.116Z,98613.38
2023-03-13T23:27:44.106Z,98598.69
2023-03-13T23:30:15.217Z,98603.25
2023-03-13T23:32:46.348Z,98600.06
2023-03-13T23:35:17.074Z,98601.91
2023-03-13T23:37:51.326Z,98590.97
2023-03-13T23:40:22.678Z,98591.25
2023-03-13T23:42:52.030Z,98586.41
2023-03-13T23:45:20.870Z,98585.13
2023-03-13T23:47:49.606Z,98581.00
2023-03-13T23:50:18.860Z,98584.69
2023-03-13T23:52:47.481Z,98579.72
2023-03-13T23:55:17.840Z,98589.53
2023-03-13T23:57:50.228Z,98584.63
